LPFL/FLW METAR and TAF weather

Enter ICAO airport designator
Station Type Date Time Source
LPFL METAR 2019/06/17 20:00 UTC NOAA

LPFL 172000Z 02004KT 340V040 9999 SCT017 19/15 Q1015


Station Type Date Time Source
LPFL Decoded METAR 2019/06/17 20:00 UTC NOAA

Flores Acores , Portugal (LPFL) 39-27N 031-08W 29M
Jun 17, 2019 - 04:00 PM EDT / 2019.06.17 2000 UTC
Wind: from the NNE (020 degrees) at 5 MPH (4 KT) (direction variable):0
Visibility: greater than 7 mile(s):0
Sky conditions: partly cloudy
Temperature: 66 F (19 C)
Dew Point: 59 F (15 C)
Relative Humidity: 77%
Pressure (altimeter): 29.97 in. Hg (1015 hPa)
ob: LPFL 172000Z 02004KT 340V040 9999 SCT017 19/15 Q1015
cycle: 20

Station Type Date Time Source
LPFL TAF UTC NOAA

Error!

Example: see airport list